createdAt,value
2018-02-10T00:02:09.397Z,17.47
2018-02-10T00:04:36.861Z,18.87
2018-02-10T00:07:04.310Z,18.60
2018-02-10T00:09:31.827Z,19.17
2018-02-10T00:11:59.266Z,22.57
2018-02-10T00:14:26.750Z,18.93
2018-02-10T00:16:54.212Z,20.57
2018-02-10T00:19:21.667Z,20.23
2018-02-10T00:21:49.124Z,20.00
2018-02-10T00:24:16.592Z,18.77
2018-02-10T00:26:44.044Z,20.23
2018-02-10T00:29:11.497Z,19.33
2018-02-10T00:31:38.966Z,18.90
2018-02-10T00:34:06.437Z,19.80
2018-02-10T00:36:33.878Z,19.13
2018-02-10T00:39:01.340Z,22.30
2018-02-10T00:41:28.805Z,20.27
2018-02-10T00:43:56.283Z,19.53
2018-02-10T00:46:23.734Z,21.43
2018-02-10T00:48:51.210Z,20.47
2018-02-10T00:51:18.665Z,21.87
2018-02-10T00:53:46.132Z,20.83
2018-02-10T00:56:13.611Z,19.47
2018-02-10T00:58:41.057Z,22.90
2018-02-10T01:01:08.574Z,19.23
2018-02-10T01:03:36.804Z,20.47
2018-02-10T01:06:04.273Z,20.43
2018-02-10T01:08:31.744Z,19.80
2018-02-10T01:10:59.198Z,20.30
2018-02-10T01:13:26.667Z,19.07
2018-02-10T01:15:54.139Z,20.07
2018-02-10T01:18:21.598Z,18.77
2018-02-10T01:20:49.054Z,20.27
2018-02-10T01:23:16.507Z,19.97
2018-02-10T01:25:43.978Z,20.20
2018-02-10T01:28:11.423Z,20.50
2018-02-10T01:30:38.897Z,19.97
2018-02-10T01:33:06.351Z,19.33
2018-02-10T01:35:33.810Z,18.03
2018-02-10T01:38:01.266Z,19.50
2018-02-10T01:40:28.714Z,18.53
2018-02-10T01:42:56.192Z,19.40
2018-02-10T01:45:23.673Z,20.13
2018-02-10T01:47:51.125Z,20.00
2018-02-10T01:50:22.346Z,19.73
2018-02-10T01:52:50.562Z,19.03
2018-02-10T01:55:18.017Z,19.67
2018-02-10T01:57:45.470Z,19.77
2018-02-10T02:00:12.926Z,20.27
2018-02-10T02:02:40.383Z,20.57
2018-02-10T02:05:07.847Z,20.00
2018-02-10T02:07:35.323Z,19.87
2018-02-10T02:10:02.802Z,18.40
2018-02-10T02:12:30.302Z,20.03
2018-02-10T02:14:58.534Z,18.50
2018-02-10T02:17:25.997Z,19.03
2018-02-10T02:19:53.460Z,19.57
2018-02-10T02:22:20.926Z,20.77
2018-02-10T02:24:48.397Z,19.90
2018-02-10T02:27:15.862Z,19.67
2018-02-10T02:29:43.336Z,18.40
2018-02-10T02:32:10.801Z,19.67
2018-02-10T02:34:38.251Z,19.17
2018-02-10T02:37:05.733Z,19.67
2018-02-10T02:39:33.199Z,19.83
2018-02-10T02:42:00.664Z,19.67
2018-02-10T02:44:28.138Z,20.10
2018-02-10T02:46:56.362Z,20.67
2018-02-10T02:49:23.827Z,19.43
2018-02-10T02:51:51.285Z,20.20
2018-02-10T02:54:18.745Z,19.93
2018-02-10T02:56:46.225Z,19.27
2018-02-10T02:59:13.718Z,18.23
2018-02-10T03:01:41.164Z,19.40
2018-02-10T03:04:08.647Z,20.53
2018-02-10T03:06:36.103Z,19.53
2018-02-10T03:09:03.563Z,18.83
2018-02-10T03:11:31.026Z,20.07
2018-02-10T03:13:58.490Z,20.03
2018-02-10T03:16:25.963Z,19.63
2018-02-10T03:18:53.417Z,19.50
2018-02-10T03:21:20.874Z,20.63
2018-02-10T03:23:48.328Z,18.97
2018-02-10T03:26:15.787Z,19.67
2018-02-10T03:28:43.249Z,19.23
2018-02-10T03:31:10.713Z,18.87
2018-02-10T03:33:38.225Z,18.87
2018-02-10T03:36:06.430Z,19.27
2018-02-10T03:38:33.913Z,18.87
2018-02-10T03:41:01.402Z,18.73
2018-02-10T03:43:28.863Z,19.70
2018-02-10T03:45:56.343Z,18.53
2018-02-10T03:48:24.572Z,20.13
2018-02-10T03:50:52.052Z,17.87
2018-02-10T03:53:19.510Z,19.17
2018-02-10T03:55:46.974Z,18.73
2018-02-10T03:58:14.441Z,18.10
2018-02-10T04:00:41.911Z,19.53
2018-02-10T04:03:09.376Z,18.70
2018-02-10T04:05:36.842Z,18.57
2018-02-10T04:08:04.333Z,17.73
2018-02-10T04:10:32.554Z,17.87
2018-02-10T04:13:00.012Z,19.37
2018-02-10T04:15:27.483Z,18.97
2018-02-10T04:17:54.935Z,19.77
2018-02-10T04:20:22.435Z,19.90
2018-02-10T04:22:49.887Z,19.37
2018-02-10T04:25:17.345Z,19.20
2018-02-10T04:27:44.799Z,19.23
2018-02-10T04:30:12.277Z,19.33
2018-02-10T04:32:39.723Z,18.60
2018-02-10T04:35:07.214Z,20.33
2018-02-10T04:37:34.687Z,17.80
2018-02-10T04:40:02.168Z,19.63
2018-02-10T04:42:30.438Z,19.80
2018-02-10T04:44:58.680Z,19.30
2018-02-10T04:47:26.149Z,18.10
2018-02-10T04:49:53.618Z,18.93
2018-02-10T04:52:21.087Z,19.37
2018-02-10T04:54:48.535Z,19.40
2018-02-10T04:57:16.029Z,18.23
2018-02-10T04:59:43.537Z,18.33
2018-02-10T05:02:10.946Z,18.27
2018-02-10T05:04:38.424Z,17.90
2018-02-10T05:07:06.646Z,18.40
2018-02-10T05:09:34.100Z,18.30
2018-02-10T05:12:01.573Z,18.40
2018-02-10T05:14:29.812Z,17.93
2018-02-10T05:16:58.084Z,18.03
2018-02-10T05:19:25.529Z,16.47
2018-02-10T05:21:52.996Z,16.97
2018-02-10T05:24:20.467Z,17.43
2018-02-10T05:26:47.950Z,16.93
2018-02-10T05:29:16.174Z,17.03
2018-02-10T05:31:43.636Z,17.57
2018-02-10T05:34:11.108Z,17.83
2018-02-10T05:36:38.576Z,17.50
2018-02-10T05:39:06.043Z,17.23
2018-02-10T05:41:33.512Z,18.23
2018-02-10T05:44:00.972Z,17.30
2018-02-10T05:46:28.434Z,19.30
2018-02-10T05:48:55.894Z,17.63
2018-02-10T05:51:23.360Z,17.83
2018-02-10T05:53:50.833Z,16.97
2018-02-10T05:56:18.296Z,17.23
2018-02-10T05:58:45.781Z,17.23
2018-02-10T06:01:14.025Z,17.90
2018-02-10T06:03:41.503Z,17.23
2018-02-10T06:06:08.966Z,17.77
2018-02-10T06:08:36.431Z,16.77
2018-02-10T06:11:03.920Z,17.20
2018-02-10T06:13:32.152Z,17.23
2018-02-10T06:15:59.610Z,17.60
2018-02-10T06:18:27.071Z,16.87
2018-02-10T06:20:54.557Z,18.50
2018-02-10T06:23:22.034Z,16.47
2018-02-10T06:25:49.496Z,17.17
2018-02-10T06:28:16.970Z,19.47
2018-02-10T06:30:45.209Z,17.43
2018-02-10T06:33:12.667Z,18.00
2018-02-10T06:35:40.144Z,20.43
2018-02-10T06:38:07.611Z,17.73
2018-02-10T06:40:35.082Z,16.57
2018-02-10T06:43:02.536Z,18.57
2018-02-10T06:45:30.039Z,17.23
2018-02-10T06:47:58.279Z,18.37
2018-02-10T06:50:25.768Z,16.50
2018-02-10T06:52:54.010Z,17.57
2018-02-10T06:55:21.471Z,17.67
2018-02-10T06:57:48.942Z,17.23
2018-02-10T07:00:16.420Z,17.33
2018-02-10T07:02:43.870Z,17.93
2018-02-10T07:05:11.314Z,18.20
2018-02-10T07:07:38.787Z,17.77
2018-02-10T07:10:06.241Z,18.47
2018-02-10T07:12:33.703Z,19.63
2018-02-10T07:15:01.199Z,17.63
2018-02-10T07:17:28.650Z,17.47
2018-02-10T07:19:56.102Z,17.07
2018-02-10T07:22:23.582Z,18.67
2018-02-10T07:24:51.038Z,17.17
2018-02-10T07:27:18.486Z,18.03
2018-02-10T07:29:45.944Z,20.37
2018-02-10T07:32:13.409Z,19.23
2018-02-10T07:34:40.876Z,19.23
2018-02-10T07:37:08.327Z,19.10
2018-02-10T07:39:35.789Z,18.80
2018-02-10T07:42:03.238Z,18.97
2018-02-10T07:44:30.704Z,19.73
2018-02-10T07:46:58.163Z,21.07
2018-02-10T07:49:25.624Z,19.27
2018-02-10T07:51:53.094Z,18.27
2018-02-10T07:54:20.536Z,20.50
2018-02-10T07:56:48.754Z,20.10
2018-02-10T07:59:16.236Z,20.10
2018-02-10T08:01:43.655Z,18.97
2018-02-10T08:04:11.141Z,19.07
2018-02-10T08:06:38.597Z,19.00
2018-02-10T08:09:06.078Z,19.47
2018-02-10T08:11:33.571Z,19.63
2018-02-10T08:14:01.003Z,20.33
2018-02-10T08:16:28.460Z,21.53
2018-02-10T08:18:55.948Z,20.03
2018-02-10T08:21:23.382Z,19.60
2018-02-10T08:23:50.830Z,20.50
2018-02-10T08:26:18.305Z,18.70
2018-02-10T08:28:45.752Z,20.50
2018-02-10T08:31:13.205Z,21.63
2018-02-10T08:33:40.641Z,21.33
2018-02-10T08:36:08.959Z,20.13
2018-02-10T08:38:36.401Z,19.43
2018-02-10T08:41:04.593Z,20.37
2018-02-10T08:43:32.800Z,26.85
2018-02-10T08:46:00.253Z,19.57
2018-02-10T08:48:27.693Z,20.87
2018-02-10T08:50:55.173Z,22.10
2018-02-10T08:53:22.603Z,19.63
2018-02-10T08:55:50.819Z,18.80
2018-02-10T08:58:18.264Z,19.40
2018-02-10T09:00:45.728Z,20.00
2018-02-10T09:03:13.182Z,19.53
2018-02-10T09:05:40.636Z,20.67
2018-02-10T09:08:08.097Z,19.17
2018-02-10T09:10:37.213Z,18.13
2018-02-10T09:13:04.695Z,18.87
2018-02-10T09:15:32.140Z,19.10
2018-02-10T09:17:59.588Z,18.43
2018-02-10T09:20:27.089Z,19.03
2018-02-10T09:22:55.285Z,20.40
2018-02-10T09:25:22.726Z,18.67
2018-02-10T09:27:50.173Z,19.43
2018-02-10T09:30:17.635Z,17.97
2018-02-10T09:32:45.100Z,18.90
2018-02-10T09:35:12.565Z,18.23
2018-02-10T09:37:41.688Z,17.80
2018-02-10T09:40:10.526Z,18.17
2018-02-10T09:42:38.029Z,17.93
2018-02-10T09:45:05.489Z,18.50
2018-02-10T09:47:32.943Z,18.33
2018-02-10T09:50:00.406Z,19.63
2018-02-10T09:52:27.857Z,18.10
2018-02-10T09:54:55.313Z,18.43
2018-02-10T09:57:23.526Z,19.80
2018-02-10T09:59:51.272Z,18.63
2018-02-10T10:02:18.803Z,20.40
2018-02-10T10:04:46.237Z,19.70
2018-02-10T10:07:13.690Z,17.83
2018-02-10T10:09:41.167Z,18.90
2018-02-10T10:12:08.616Z,19.23
2018-02-10T10:14:36.157Z,18.27
2018-02-10T10:17:03.624Z,19.67
2018-02-10T10:19:31.088Z,18.20
2018-02-10T10:21:58.546Z,18.03
2018-02-10T10:24:25.989Z,17.20
2018-02-10T10:26:54.206Z,17.13
2018-02-10T10:29:21.653Z,16.40
2018-02-10T10:31:49.115Z,17.33
2018-02-10T10:34:16.570Z,15.13
2018-02-10T10:36:44.022Z,15.53
2018-02-10T10:39:12.247Z,12.87
2018-02-10T10:41:39.701Z,13.83
2018-02-10T10:44:07.161Z,12.20
2018-02-10T10:46:34.619Z,13.10
2018-02-10T10:49:02.101Z,11.47
2018-02-10T10:51:29.553Z,10.50
2018-02-10T10:53:57.245Z,10.60
2018-02-10T10:56:24.690Z,9.83
2018-02-10T10:58:52.139Z,8.47
2018-02-10T11:01:19.571Z,8.67
2018-02-10T11:03:47.027Z,7.77
2018-02-10T11:06:15.256Z,9.20
2018-02-10T11:08:42.715Z,6.77
2018-02-10T11:11:10.162Z,7.33
2018-02-10T11:13:37.634Z,6.37
2018-02-10T11:16:05.090Z,5.60
2018-02-10T11:18:32.526Z,5.47
2018-02-10T11:21:00.755Z,5.33
2018-02-10T11:23:28.212Z,5.23
2018-02-10T11:25:55.653Z,5.37
2018-02-10T11:28:23.866Z,4.93
2018-02-10T11:30:51.308Z,4.80
2018-02-10T11:33:18.769Z,5.43
2018-02-10T11:35:46.225Z,5.00
2018-02-10T11:38:13.665Z,4.13
2018-02-10T11:40:41.112Z,4.10
2018-02-10T11:43:09.416Z,4.13
2018-02-10T11:45:36.809Z,3.77
2018-02-10T11:48:04.278Z,3.83
2018-02-10T11:50:31.739Z,4.00
2018-02-10T11:52:59.205Z,3.57
2018-02-10T11:55:26.653Z,3.37
2018-02-10T11:57:54.134Z,3.23
2018-02-10T12:00:21.599Z,2.83
2018-02-10T12:02:49.039Z,3.50
2018-02-10T12:05:16.483Z,3.10
2018-02-10T12:07:43.943Z,2.57
2018-02-10T12:10:11.397Z,3.20
2018-02-10T12:12:38.849Z,2.83
2018-02-10T12:15:07.064Z,2.90
2018-02-10T12:17:34.519Z,3.00
2018-02-10T12:20:01.991Z,2.77
2018-02-10T12:22:29.417Z,2.33
2018-02-10T12:24:57.656Z,2.60
2018-02-10T12:27:25.113Z,2.70
2018-02-10T12:29:52.541Z,2.60
2018-02-10T12:32:20.006Z,2.70
2018-02-10T12:34:47.437Z,2.90
2018-02-10T12:37:15.802Z,2.80
2018-02-10T12:39:43.252Z,2.67
2018-02-10T12:42:10.714Z,2.57
2018-02-10T12:44:38.187Z,2.83
2018-02-10T12:47:05.630Z,2.40
2018-02-10T12:49:33.073Z,2.67
2018-02-10T12:52:00.537Z,2.40
2018-02-10T12:54:27.991Z,2.33
2018-02-10T12:56:55.453Z,2.07
2018-02-10T12:59:22.905Z,2.30
2018-02-10T13:01:50.367Z,2.43
2018-02-10T13:04:17.816Z,2.23
2018-02-10T13:06:46.022Z,2.07
2018-02-10T13:09:13.484Z,2.80
2018-02-10T13:11:40.947Z,2.10
2018-02-10T13:14:08.427Z,2.20
2018-02-10T13:16:35.860Z,2.10
2018-02-10T13:19:03.343Z,2.20
2018-02-10T13:21:30.885Z,2.20
2018-02-10T13:23:59.114Z,2.23
2018-02-10T13:26:26.579Z,2.93
2018-02-10T13:28:54.030Z,1.73
2018-02-10T13:31:21.495Z,2.20
2018-02-10T13:33:48.963Z,2.07
2018-02-10T13:36:16.422Z,2.30
2018-02-10T13:38:43.882Z,2.30
2018-02-10T13:41:11.330Z,1.90
2018-02-10T13:43:38.787Z,2.27
2018-02-10T13:46:06.240Z,2.20
2018-02-10T13:48:38.489Z,2.07
2018-02-10T13:51:06.748Z,2.07
2018-02-10T13:53:34.205Z,2.20
2018-02-10T13:56:01.647Z,1.83
2018-02-10T13:58:29.101Z,2.00
2018-02-10T14:00:56.565Z,3.00
2018-02-10T14:03:24.021Z,1.90
2018-02-10T14:05:51.474Z,2.10
2018-02-10T14:08:18.932Z,2.20
2018-02-10T14:10:46.420Z,2.30
2018-02-10T14:13:13.910Z,2.00
2018-02-10T14:15:41.336Z,2.67
2018-02-10T14:18:08.758Z,2.20
2018-02-10T14:20:36.974Z,2.33
2018-02-10T14:23:04.429Z,2.47
2018-02-10T14:25:31.870Z,2.13
2018-02-10T14:28:00.123Z,2.50
2018-02-10T14:30:27.570Z,1.60
2018-02-10T14:32:55.011Z,2.23
2018-02-10T14:35:22.482Z,2.33
2018-02-10T14:37:49.976Z,2.50
2018-02-10T14:40:17.453Z,2.20
2018-02-10T14:42:47.159Z,1.90
2018-02-10T14:45:14.604Z,1.90
2018-02-10T14:47:48.096Z,2.03
2018-02-10T15:04:00.434Z,1.70
2018-02-10T15:06:27.875Z,1.87
2018-02-10T15:08:56.099Z,1.90
2018-02-10T15:11:23.576Z,1.83
2018-02-10T15:13:51.026Z,1.80
2018-02-10T15:16:18.472Z,2.10
2018-02-10T15:18:45.948Z,2.17
2018-02-10T15:21:13.415Z,1.50
2018-02-10T15:23:40.922Z,1.90
2018-02-10T15:26:09.174Z,1.70
2018-02-10T15:28:37.126Z,1.83
2018-02-10T15:31:16.643Z,1.63
2018-02-10T15:33:55.990Z,1.87
2018-02-10T15:36:23.443Z,2.23
2018-02-10T15:39:15.591Z,1.80
2018-02-10T15:41:43.036Z,1.67
2018-02-10T15:44:10.493Z,1.77
2018-02-10T15:46:37.960Z,2.27
2018-02-10T15:49:05.436Z,1.97
2018-02-10T15:51:32.907Z,1.80
2018-02-10T15:54:00.363Z,1.90
2018-02-10T15:56:27.823Z,2.00
2018-02-10T15:58:55.250Z,2.23
2018-02-10T16:01:23.453Z,1.90
2018-02-10T16:03:50.920Z,1.93
2018-02-10T16:06:18.367Z,2.03
2018-02-10T16:08:45.823Z,2.20
2018-02-10T16:11:13.275Z,1.80
2018-02-10T16:13:41.494Z,1.77
2018-02-10T16:16:08.951Z,2.00
2018-02-10T16:18:36.383Z,1.93
2018-02-10T16:21:04.655Z,2.10
2018-02-10T16:23:32.899Z,1.67
2018-02-10T16:26:00.344Z,2.10
2018-02-10T16:28:27.795Z,2.00
2018-02-10T16:30:55.282Z,2.20
2018-02-10T16:33:22.731Z,2.10
2018-02-10T16:35:50.198Z,2.40
2018-02-10T16:38:17.645Z,2.50
2018-02-10T16:40:45.108Z,2.27
2018-02-10T16:43:12.572Z,2.03
2018-02-10T16:45:40.022Z,2.17
2018-02-10T16:48:07.486Z,4.68
2018-02-10T16:50:34.956Z,2.57
2018-02-10T16:53:02.417Z,2.87
2018-02-10T16:55:29.866Z,2.63
2018-02-10T16:57:57.309Z,3.00
2018-02-10T17:00:25.534Z,2.83
2018-02-10T17:02:53.763Z,2.27
2018-02-10T17:05:21.223Z,2.53
2018-02-10T17:07:48.664Z,2.30
2018-02-10T17:10:16.116Z,2.77
2018-02-10T17:12:43.575Z,2.63
2018-02-10T17:15:11.018Z,2.23
2018-02-10T17:17:38.461Z,2.70
2018-02-10T17:20:06.681Z,2.40
2018-02-10T17:22:34.143Z,2.40
2018-02-10T17:25:01.610Z,2.37
2018-02-10T17:27:29.058Z,3.07
2018-02-10T17:29:56.530Z,2.57
2018-02-10T17:32:23.988Z,2.63
2018-02-10T17:34:51.435Z,2.53
2018-02-10T17:37:18.913Z,2.50
2018-02-10T17:39:46.390Z,2.47
2018-02-10T17:42:13.845Z,2.70
2018-02-10T17:44:41.297Z,3.47
2018-02-10T17:47:08.755Z,2.87
2018-02-10T17:49:36.217Z,2.90
2018-02-10T17:52:03.666Z,3.07
2018-02-10T17:54:31.122Z,3.43
2018-02-10T17:56:58.565Z,2.73
2018-02-10T17:59:26.791Z,2.80
2018-02-10T18:01:54.246Z,3.70
2018-02-10T18:04:21.738Z,3.17
2018-02-10T18:06:49.933Z,3.30
2018-02-10T18:09:17.398Z,3.33
2018-02-10T18:11:44.831Z,3.43
2018-02-10T18:14:12.278Z,3.37
2018-02-10T18:16:39.751Z,3.30
2018-02-10T18:19:07.197Z,3.20
2018-02-10T18:21:34.662Z,3.67
2018-02-10T18:24:02.090Z,3.50
2018-02-10T18:26:30.308Z,3.57
2018-02-10T18:28:57.763Z,3.90
2018-02-10T18:31:25.219Z,3.40
2018-02-10T18:33:52.673Z,3.73
2018-02-10T18:36:20.131Z,3.73
2018-02-10T18:38:48.354Z,3.90
2018-02-10T18:41:15.818Z,3.93
2018-02-10T18:43:43.254Z,4.30
2018-02-10T18:46:10.707Z,3.70
2018-02-10T18:48:38.196Z,3.90
2018-02-10T18:51:05.669Z,3.77
2018-02-10T18:53:33.124Z,4.07
2018-02-10T18:56:01.365Z,4.53
2018-02-10T18:58:30.294Z,4.13
2018-02-10T19:00:57.775Z,3.97
2018-02-10T19:03:25.270Z,3.67
2018-02-10T19:05:52.761Z,3.80
2018-02-10T19:08:20.216Z,4.67
2018-02-10T19:10:48.463Z,4.27
2018-02-10T19:13:15.924Z,3.50
2018-02-10T19:15:43.402Z,4.10
2018-02-10T19:18:10.878Z,4.00
2018-02-10T19:20:39.129Z,3.77
2018-02-10T19:23:06.598Z,4.07
2018-02-10T19:25:34.132Z,3.67
2018-02-10T19:28:01.657Z,4.83
2018-02-10T19:30:29.945Z,4.97
2018-02-10T19:32:58.183Z,4.37
2018-02-10T19:35:25.688Z,4.57
2018-02-10T19:37:53.972Z,4.20
2018-02-10T19:40:22.220Z,4.10
2018-02-10T21:27:53.962Z,4.85
2018-02-10T21:37:47.239Z,4.23
2018-02-10T21:40:15.444Z,3.90
2018-02-10T21:42:42.901Z,4.37
2018-02-10T21:45:10.352Z,3.53
2018-02-10T21:47:37.839Z,3.70
2018-02-10T21:50:05.279Z,3.60
2018-02-10T21:52:32.754Z,4.27
2018-02-10T21:55:00.215Z,3.97
2018-02-10T21:57:27.681Z,3.73
2018-02-10T21:59:55.133Z,3.97
2018-02-10T22:02:22.581Z,3.83
2018-02-10T22:04:50.040Z,3.80
2018-02-10T22:07:17.511Z,4.30
2018-02-10T22:09:44.979Z,4.53
2018-02-10T22:12:12.448Z,4.07
2018-02-10T22:14:39.936Z,4.20
2018-02-10T22:17:07.406Z,3.93
2018-02-10T22:19:34.867Z,4.20
2018-02-10T22:22:02.333Z,4.30
2018-02-10T22:24:29.769Z,4.40
2018-02-10T22:26:57.217Z,5.10
2018-02-10T22:29:24.679Z,5.10
2018-02-10T22:31:52.146Z,4.93
2018-02-10T22:34:19.609Z,4.80
2018-02-10T22:36:47.050Z,5.40
2018-02-10T22:39:14.517Z,4.80
2018-02-10T22:41:42.011Z,5.07
2018-02-10T22:44:09.441Z,5.17
2018-02-10T22:46:36.904Z,5.00
2018-02-10T22:49:04.364Z,5.93
2018-02-10T22:51:31.807Z,5.77
2018-02-10T22:53:59.257Z,5.83
2018-02-10T22:56:27.486Z,5.90
2018-02-10T22:58:54.944Z,5.47
2018-02-10T23:01:22.396Z,5.87
2018-02-10T23:03:49.879Z,6.07
2018-02-10T23:06:17.367Z,6.17
2018-02-10T23:08:44.831Z,5.97
2018-02-10T23:11:12.285Z,6.20
2018-02-10T23:13:39.746Z,5.60
2018-02-10T23:16:07.202Z,5.70
2018-02-10T23:18:34.656Z,6.30
2018-02-10T23:21:02.102Z,6.17
2018-02-10T23:23:29.572Z,6.73
2018-02-10T23:25:57.022Z,6.77
2018-02-10T23:28:24.495Z,7.07
2018-02-10T23:30:51.979Z,7.10
2018-02-10T23:33:19.404Z,6.33
2018-02-10T23:35:47.139Z,7.00
2018-02-10T23:38:14.628Z,7.07
2018-02-10T23:40:42.075Z,6.83
2018-02-10T23:43:09.607Z,7.53
2018-02-10T23:45:37.069Z,7.17
2018-02-10T23:48:04.519Z,7.13
2018-02-10T23:50:31.983Z,7.83
2018-02-10T23:52:59.442Z,7.10
2018-02-10T23:55:26.911Z,7.27
2018-02-10T23:57:54.379Z,7.10
